Time;durP1;ratioP1;P1;durP2;ratioP2;P2;SDS_P1;SDS_P2;PMS_P1;PMS_P2;Temp;Humidity;BMP_temperature;BMP_pressure;BME280_temperature;BME280_humidity;BME280_pressure;Samples;Min_cycle;Max_cycle;Signal;HPM_P1;HPM_P2
2021/07/19 00:00:19;;;;;;;12.90;5.50;;;17.70;99.90;;;;;;4776190;30;20269;-96
2021/07/19 00:02:46;;;;;;;13.70;5.70;;;17.70;99.90;;;;;;4775806;30;20268;-95
2021/07/19 00:05:13;;;;;;;14.15;5.00;;;17.70;99.90;;;;;;4775988;30;20612;-93
2021/07/19 00:07:39;;;;;;;13.07;5.50;;;17.70;99.90;;;;;;4775572;30;20217;-94
2021/07/19 00:10:14;;;;;;;10.73;5.43;;;17.70;99.90;;;;;;4775588;30;20270;-94
2021/07/19 00:12:41;;;;;;;11.95;5.93;;;17.70;99.90;;;;;;4775719;30;20175;-94
2021/07/19 00:15:18;;;;;;;12.23;5.10;;;17.70;99.90;;;;;;4776013;30;20624;-93
2021/07/19 00:17:44;;;;;;;14.55;5.13;;;17.70;99.90;;;;;;4774827;30;20238;-94
2021/07/19 00:20:23;;;;;;;9.10;4.85;;;17.70;99.90;;;;;;4775943;30;20237;-94
2021/07/19 00:22:49;;;;;;;11.77;5.45;;;17.70;99.90;;;;;;4775643;30;20655;-95
2021/07/19 00:25:16;;;;;;;11.57;5.32;;;17.70;99.90;;;;;;4775221;30;20188;-93
2021/07/19 00:27:44;;;;;;;11.60;5.53;;;17.70;99.90;;;;;;4775686;30;20192;-94
2021/07/19 00:30:14;;;;;;;7.70;4.80;;;17.60;99.90;;;;;;4775457;30;20226;-94
2021/07/19 00:32:41;;;;;;;19.30;5.03;;;17.50;99.90;;;;;;4775355;30;20184;-93
2021/07/19 00:35:07;;;;;;;13.05;5.28;;;17.50;99.90;;;;;;4775496;30;20187;-94
2021/07/19 00:37:34;;;;;;;11.75;5.43;;;17.50;99.90;;;;;;4775151;30;20183;-94
2021/07/19 00:40:08;;;;;;;10.02;5.30;;;17.40;99.90;;;;;;4774947;30;20524;-95
2021/07/19 00:42:34;;;;;;;13.68;5.80;;;17.30;99.90;;;;;;4775243;30;20207;-95
2021/07/19 00:44:59;;;;;;;8.55;5.55;;;17.30;99.90;;;;;;4775337;30;20240;-95
2021/07/19 00:47:25;;;;;;;9.98;5.22;;;17.20;99.90;;;;;;4775328;30;20199;-96
2021/07/19 00:49:55;;;;;;;14.88;5.40;;;17.20;99.90;;;;;;4774974;30;20194;-95
2021/07/19 00:52:21;;;;;;;10.43;5.45;;;17.10;99.90;;;;;;4775175;30;20337;-95
2021/07/19 00:54:47;;;;;;;13.15;5.78;;;17.10;99.90;;;;;;4775150;30;20635;-93
2021/07/19 00:57:14;;;;;;;8.05;5.05;;;17.00;99.90;;;;;;4774832;30;20214;-93
2021/07/19 00:59:48;;;;;;;13.38;5.43;;;17.00;99.90;;;;;;4775052;30;20277;-94
2021/07/19 01:02:15;;;;;;;13.68;5.82;;;17.00;99.90;;;;;;4774621;30;20233;-94
2021/07/19 01:04:41;;;;;;;12.10;5.38;;;16.80;99.90;;;;;;4774719;30;20274;-93
2021/07/19 01:07:09;;;;;;;11.02;5.32;;;16.80;99.90;;;;;;4775052;30;20267;-94
2021/07/19 01:09:44;;;;;;;12.85;5.43;;;16.70;99.90;;;;;;4774398;30;20190;-94
2021/07/19 01:12:10;;;;;;;14.50;6.13;;;16.70;99.90;;;;;;4774727;30;20183;-94
2021/07/19 01:14:35;;;;;;;10.20;5.22;;;16.60;99.90;;;;;;4774603;30;20244;-93
2021/07/19 01:17:01;;;;;;;11.43;5.20;;;16.60;99.90;;;;;;4774708;30;20334;-94
2021/07/19 01:19:32;;;;;;;12.27;5.78;;;16.50;99.90;;;;;;4774861;30;20183;-94
2021/07/19 01:22:52;;;;;;;12.05;5.68;;;16.50;99.90;;;;;;4774505;30;20574;-94
2021/07/19 01:25:25;;;;;;;13.90;6.22;;;16.50;99.90;;;;;;4736237;30;20185;-93
2021/07/19 01:27:53;;;;;;;12.27;5.78;;;16.50;99.90;;;;;;4787798;30;20191;-94
2021/07/19 01:30:24;;;;;;;13.38;5.70;;;16.40;99.90;;;;;;4774830;30;20683;-94
2021/07/19 01:32:51;;;;;;;11.95;5.47;;;16.40;99.90;;;;;;4774888;30;20176;-94
2021/07/19 01:35:18;;;;;;;13.68;5.75;;;16.40;99.90;;;;;;4774019;30;20191;-94
2021/07/19 01:37:45;;;;;;;13.20;5.50;;;16.40;99.90;;;;;;4774008;30;20547;-93
2021/07/19 01:40:13;;;;;;;14.63;5.85;;;16.40;99.90;;;;;;4774453;30;20530;-94
2021/07/19 01:42:40;;;;;;;10.77;5.57;;;16.40;99.90;;;;;;4774029;30;20737;-95
2021/07/19 01:45:07;;;;;;;10.05;5.88;;;16.50;99.90;;;;;;4774148;30;20183;-94
2021/07/19 01:47:34;;;;;;;9.77;5.68;;;16.50;99.90;;;;;;4774347;30;20191;-95
2021/07/19 01:50:08;;;;;;;11.20;5.90;;;16.50;99.90;;;;;;4773961;30;20183;-95
2021/07/19 01:52:34;;;;;;;13.95;5.80;;;16.40;99.90;;;;;;4774464;30;20635;-95
2021/07/19 01:55:00;;;;;;;10.23;5.47;;;16.40;99.90;;;;;;4774038;30;20221;-95
2021/07/19 01:57:27;;;;;;;14.48;5.70;;;16.30;99.90;;;;;;4773807;30;20187;-94
2021/07/19 01:59:54;;;;;;;14.10;6.07;;;16.30;99.90;;;;;;4773918;30;20591;-94
2021/07/19 02:02:21;;;;;;;10.50;5.72;;;16.30;99.90;;;;;;4774337;30;20553;-94
2021/07/19 02:04:48;;;;;;;11.43;5.28;;;16.30;99.90;;;;;;4773769;30;20422;-94
2021/07/19 02:07:15;;;;;;;12.57;6.07;;;16.30;99.90;;;;;;4773858;30;20195;-93
2021/07/19 02:09:42;;;;;;;7.95;5.20;;;16.30;99.90;;;;;;4773627;30;20184;-92
2021/07/19 02:12:11;;;;;;;11.27;5.70;;;16.40;99.90;;;;;;4773983;30;20198;-94
2021/07/19 02:14:42;;;;;;;12.40;5.88;;;16.30;99.90;;;;;;4774272;30;20654;-93
2021/07/19 02:17:09;;;;;;;10.35;5.90;;;16.30;99.90;;;;;;4773871;30;20608;-94
2021/07/19 02:19:37;;;;;;;8.85;5.43;;;16.30;99.90;;;;;;4773974;30;20184;-93
2021/07/19 02:22:07;;;;;;;10.68;5.22;;;16.30;99.90;;;;;;4758496;30;20314;-95
2021/07/19 02:24:34;;;;;;;12.38;6.00;;;16.30;99.90;;;;;;4755692;30;20184;-94
2021/07/19 02:27:00;;;;;;;13.07;5.57;;;16.20;99.90;;;;;;4756092;30;20271;-93
2021/07/19 02:29:26;;;;;;;12.32;5.28;;;16.30;99.90;;;;;;4755804;30;20693;-93
2021/07/19 02:32:01;;;;;;;15.20;6.00;;;16.20;99.90;;;;;;4755908;30;20191;-94
2021/07/19 02:34:29;;;;;;;10.50;5.22;;;16.20;99.90;;;;;;4756168;30;20184;-94
2021/07/19 02:36:56;;;;;;;14.77;6.00;;;16.20;99.90;;;;;;4756104;30;20211;-94
2021/07/19 02:39:23;;;;;;;13.23;6.10;;;16.10;99.90;;;;;;4755791;30;20188;-93
2021/07/19 02:41:51;;;;;;;10.38;5.28;;;16.10;99.90;;;;;;4758404;30;20614;-94
2021/07/19 02:44:18;;;;;;;15.52;5.88;;;16.10;99.90;;;;;;4759591;30;20195;-93
2021/07/19 02:46:47;;;;;;;9.93;5.25;;;16.10;99.90;;;;;;5084812;24;21026;-96
2021/07/19 02:49:13;;;;;;;13.27;4.85;;;16.20;99.90;;;;;;4778486;30;20208;-96
2021/07/19 02:51:39;;;;;;;13.48;5.15;;;16.20;99.90;;;;;;4778001;30;20197;-96
2021/07/19 02:54:08;;;;;;;9.98;4.80;;;16.20;99.90;;;;;;4779515;30;20243;-97
2021/07/19 02:56:36;;;;;;;12.20;4.93;;;16.20;99.90;;;;;;4764729;30;20180;-96
2021/07/19 02:59:03;;;;;;;12.60;5.10;;;16.20;99.90;;;;;;4780065;30;20196;-96
2021/07/19 03:01:31;;;;;;;15.13;4.85;;;16.20;99.90;;;;;;4777890;30;20219;-96
2021/07/19 03:04:00;;;;;;;14.75;4.93;;;16.20;99.90;;;;;;4778914;30;20168;-96
2021/07/19 03:06:31;;;;;;;11.88;4.50;;;16.20;99.90;;;;;;4778313;30;20183;-96
2021/07/19 03:09:00;;;;;;;12.98;4.88;;;16.20;99.90;;;;;;4778078;30;20192;-96
2021/07/19 03:11:38;;;;;;;14.98;5.03;;;16.30;99.90;;;;;;4778434;30;20694;-96
2021/07/19 03:14:07;;;;;;;14.38;4.40;;;16.20;99.90;;;;;;4776992;30;20160;-96
2021/07/19 03:16:36;;;;;;;11.95;4.35;;;16.20;99.90;;;;;;4774616;30;20168;-96
2021/07/19 03:19:13;;;;;;;13.38;4.72;;;16.30;99.90;;;;;;4781819;24;20261;-96
2021/07/19 03:21:46;;;;;;;13.02;4.75;;;16.20;99.90;;;;;;4775093;30;20212;-95
2021/07/19 03:24:17;;;;;;;8.95;4.35;;;16.20;99.90;;;;;;4757921;30;20172;-95
2021/07/19 03:26:43;;;;;;;12.40;4.30;;;16.20;99.90;;;;;;4758006;30;20189;-94
2021/07/19 03:29:16;;;;;;;11.93;4.43;;;16.30;99.90;;;;;;4757837;30;20203;-96
2021/07/19 03:31:42;;;;;;;11.13;4.55;;;16.20;99.90;;;;;;4757428;30;20183;-94
2021/07/19 03:34:11;;;;;;;12.07;4.63;;;16.30;99.90;;;;;;4757725;30;20211;-96
2021/07/19 03:36:39;;;;;;;8.60;4.03;;;16.20;99.90;;;;;;4757529;30;20176;-95
2021/07/19 03:39:11;;;;;;;14.75;4.63;;;16.20;99.90;;;;;;4757248;30;20715;-96
2021/07/19 03:41:37;;;;;;;15.50;4.97;;;16.20;99.90;;;;;;4757750;30;20200;-95
2021/07/19 03:44:04;;;;;;;8.02;3.78;;;16.20;99.90;;;;;;4758064;30;20241;-96
2021/07/19 03:46:30;;;;;;;12.30;4.40;;;16.20;99.90;;;;;;4758755;30;20180;-95
2021/07/19 03:48:59;;;;;;;12.80;4.65;;;16.20;99.90;;;;;;4757017;30;20235;-94
2021/07/19 03:51:28;;;;;;;12.73;4.20;;;16.20;99.90;;;;;;4757212;30;20721;-95
2021/07/19 03:53:54;;;;;;;9.27;3.88;;;16.20;99.90;;;;;;4756802;30;20184;-96
2021/07/19 03:56:28;;;;;;;12.48;4.05;;;16.20;99.90;;;;;;4757297;30;20192;-95
2021/07/19 03:59:00;;;;;;;8.77;3.55;;;16.20;99.90;;;;;;4756963;30;20219;-95
2021/07/19 04:01:27;;;;;;;13.70;4.20;;;16.20;99.90;;;;;;4756947;30;20608;-94
2021/07/19 04:03:55;;;;;;;7.68;3.50;;;16.20;99.90;;;;;;4757459;30;20172;-96
2021/07/19 04:06:22;;;;;;;11.52;3.95;;;16.20;99.90;;;;;;4757047;30;20198;-95
2021/07/19 04:08:49;;;;;;;12.95;4.00;;;16.20;99.90;;;;;;4756949;30;20681;-94
2021/07/19 04:11:18;;;;;;;8.80;3.53;;;16.20;99.90;;;;;;4756956;30;20172;-95
2021/07/19 04:13:46;;;;;;;9.02;3.75;;;16.10;99.90;;;;;;4756884;30;20657;-94
2021/07/19 04:16:19;;;;;;;10.35;3.78;;;16.20;99.90;;;;;;4757097;30;20180;-94
2021/07/19 04:18:49;;;;;;;10.75;3.80;;;16.10;99.90;;;;;;4756498;30;20216;-94
2021/07/19 04:21:16;;;;;;;9.98;3.63;;;16.10;99.90;;;;;;4756746;30;20208;-95
2021/07/19 04:23:42;;;;;;;12.98;4.05;;;16.10;99.90;;;;;;4773982;30;20188;-96
2021/07/19 04:26:13;;;;;;;12.57;4.15;;;16.10;99.90;;;;;;4779104;30;20185;-96
2021/07/19 04:28:41;;;;;;;8.00;3.22;;;16.20;99.90;;;;;;4776293;30;20216;-96
2021/07/19 04:31:07;;;;;;;9.98;3.53;;;16.20;99.90;;;;;;4777904;30;20191;-96
2021/07/19 04:33:33;;;;;;;14.18;3.60;;;16.20;99.90;;;;;;4777768;30;20175;-96
2021/07/19 04:35:59;;;;;;;9.10;3.55;;;16.20;99.90;;;;;;4765574;30;20180;-96
2021/07/19 04:38:26;;;;;;;9.02;3.30;;;16.20;99.90;;;;;;4771151;30;20208;-96
2021/07/19 04:40:55;;;;;;;11.52;3.50;;;16.20;99.90;;;;;;4771761;30;20176;-96
2021/07/19 04:43:22;;;;;;;10.98;3.50;;;16.20;99.90;;;;;;4768455;30;20180;-96
2021/07/19 04:45:49;;;;;;;8.52;3.83;;;16.20;99.90;;;;;;4768679;30;20195;-96
2021/07/19 04:48:15;;;;;;;9.98;3.50;;;16.20;99.90;;;;;;4769210;30;20211;-96
2021/07/19 04:50:42;;;;;;;10.63;3.75;;;16.20;99.90;;;;;;4767157;30;20210;-96
2021/07/19 04:53:09;;;;;;;11.18;3.88;;;16.20;99.90;;;;;;4768839;30;20188;-96
2021/07/19 04:55:37;;;;;;;10.63;3.75;;;16.20;99.90;;;;;;4767605;30;20184;-96
2021/07/19 04:58:06;;;;;;;9.60;3.25;;;16.10;99.90;;;;;;4765888;30;20237;-96
2021/07/19 05:00:35;;;;;;;9.98;3.20;;;16.20;99.90;;;;;;4769949;30;20180;-96
2021/07/19 05:03:03;;;;;;;11.10;4.10;;;16.30;99.90;;;;;;4761954;30;20211;-96
2021/07/19 05:05:30;;;;;;;6.22;3.33;;;16.30;99.90;;;;;;4766097;30;20176;-96
2021/07/19 05:07:59;;;;;;;9.73;3.88;;;16.30;99.90;;;;;;4771861;30;20210;-96
2021/07/19 05:10:26;;;;;;;10.10;3.20;;;16.30;99.90;;;;;;4772446;30;20180;-96
2021/07/19 05:12:54;;;;;;;10.13;2.80;;;16.30;99.90;;;;;;4771700;30;20180;-96
2021/07/19 05:15:20;;;;;;;6.80;2.80;;;16.30;99.90;;;;;;4770939;30;20203;-96
2021/07/19 05:17:47;;;;;;;5.80;2.53;;;16.30;99.90;;;;;;4770462;30;20191;-96
2021/07/19 05:20:18;;;;;;;9.80;3.17;;;16.30;99.90;;;;;;4775250;30;20224;-96
2021/07/19 05:22:50;;;;;;;8.10;3.15;;;16.30;99.90;;;;;;4772725;30;20239;-96
2021/07/19 05:25:24;;;;;;;7.95;2.28;;;16.30;99.90;;;;;;4771358;30;20196;-96
2021/07/19 05:27:58;;;;;;;10.13;2.95;;;16.40;99.90;;;;;;4771827;30;20180;-96
2021/07/19 05:30:29;;;;;;;5.97;2.67;;;16.40;99.90;;;;;;4769570;30;20187;-96
2021/07/19 05:32:55;;;;;;;8.55;3.05;;;16.30;99.90;;;;;;4773152;30;20188;-96
2021/07/19 05:35:22;;;;;;;9.73;3.17;;;16.30;99.90;;;;;;4771596;30;20183;-96
2021/07/19 05:37:48;;;;;;;7.75;3.20;;;16.40;99.90;;;;;;4771984;30;20204;-96
2021/07/19 05:40:15;;;;;;;7.63;3.33;;;16.40;99.90;;;;;;4762223;30;20239;-96
2021/07/19 05:42:41;;;;;;;6.55;3.13;;;16.40;99.90;;;;;;4763879;30;20204;-96
2021/07/19 05:45:09;;;;;;;9.63;3.08;;;16.40;99.90;;;;;;4768922;30;20178;-96
2021/07/19 05:47:35;;;;;;;7.10;2.92;;;16.40;99.90;;;;;;4769358;30;20598;-96
2021/07/19 05:50:03;;;;;;;9.27;3.08;;;16.50;99.90;;;;;;4758087;30;20208;-96
2021/07/19 05:52:29;;;;;;;8.80;3.13;;;16.50;99.90;;;;;;4756801;30;20176;-96
2021/07/19 05:54:58;;;;;;;6.57;2.97;;;16.50;99.90;;;;;;4765188;30;20244;-96
2021/07/19 05:57:25;;;;;;;8.98;3.28;;;16.40;99.90;;;;;;4777595;30;20164;-96
2021/07/19 05:59:56;;;;;;;7.47;2.70;;;16.40;99.90;;;;;;4778444;30;20188;-96
2021/07/19 06:02:25;;;;;;;9.07;3.20;;;16.40;99.90;;;;;;4777172;30;20228;-96
2021/07/19 06:04:55;;;;;;;11.88;3.33;;;16.50;99.90;;;;;;4769259;30;20196;-96
2021/07/19 06:07:24;;;;;;;9.32;3.20;;;16.40;99.90;;;;;;4790090;24;20248;-96
2021/07/19 06:09:54;;;;;;;7.40;3.13;;;16.40;99.90;;;;;;4757005;30;20223;-96
2021/07/19 06:12:30;;;;;;;7.38;2.83;;;16.50;99.90;;;;;;4757622;30;20176;-96
2021/07/19 06:25:37;;;;;;;8.23;3.08;;;16.60;99.90;;;;;;4808720;29;20253;-96
2021/07/19 06:28:07;;;;;;;7.35;2.90;;;16.60;99.90;;;;;;4791932;29;20225;-96
2021/07/19 06:30:33;;;;;;;9.43;3.38;;;16.60;99.90;;;;;;4774607;30;20187;-96
2021/07/19 06:32:58;;;;;;;10.55;3.35;;;16.70;99.90;;;;;;4767475;30;20243;-96
2021/07/19 06:35:26;;;;;;;8.38;3.25;;;16.60;99.90;;;;;;4769502;30;20187;-96
2021/07/19 06:37:53;;;;;;;8.20;3.13;;;16.60;99.90;;;;;;4771961;30;20211;-96
2021/07/19 06:40:21;;;;;;;13.55;3.88;;;16.60;99.90;;;;;;4774898;30;20207;-96
2021/07/19 06:42:50;;;;;;;11.38;3.10;;;16.60;99.90;;;;;;4773891;30;20220;-96
2021/07/19 06:45:18;;;;;;;12.23;4.10;;;16.70;99.90;;;;;;4768913;30;20176;-96
2021/07/19 06:47:44;;;;;;;8.63;3.22;;;16.80;99.90;;;;;;4769908;30;20236;-96
2021/07/19 06:50:11;;;;;;;10.02;3.13;;;16.80;99.90;;;;;;4762204;30;20176;-96
2021/07/19 06:52:38;;;;;;;11.32;3.22;;;16.80;99.90;;;;;;4773094;30;20266;-96
2021/07/19 06:55:08;;;;;;;7.35;2.95;;;16.80;99.90;;;;;;4772861;30;20193;-96
2021/07/19 06:57:35;;;;;;;8.63;3.00;;;16.90;99.90;;;;;;4772091;30;20195;-96
2021/07/19 07:00:05;;;;;;;10.23;3.35;;;17.00;99.90;;;;;;4768978;30;20273;-96
2021/07/19 07:02:31;;;;;;;11.52;3.30;;;17.10;99.90;;;;;;4768346;30;20211;-96
2021/07/19 07:04:59;;;;;;;8.13;2.80;;;17.10;99.90;;;;;;4762041;30;20173;-96
2021/07/19 07:07:32;;;;;;;9.00;3.20;;;17.10;99.90;;;;;;4759704;30;20506;-96
2021/07/19 07:09:58;;;;;;;10.25;3.40;;;17.10;99.90;;;;;;4756362;30;20689;-96
2021/07/19 07:12:24;;;;;;;11.68;3.30;;;17.10;99.90;;;;;;4755218;30;20184;-96
2021/07/19 07:14:50;;;;;;;7.70;3.28;;;17.10;99.90;;;;;;4758510;30;20183;-96
2021/07/19 07:17:17;;;;;;;8.20;3.20;;;17.20;99.90;;;;;;4755125;30;20176;-96
2021/07/19 07:19:56;;;;;;;10.82;3.17;;;17.20;99.90;;;;;;4757989;30;20214;-96
2021/07/19 07:22:26;;;;;;;11.88;3.17;;;17.20;99.90;;;;;;4753888;30;20215;-96
2021/07/19 07:24:57;;;;;;;8.27;3.05;;;17.30;99.90;;;;;;4753638;30;20319;-96
2021/07/19 07:27:25;;;;;;;10.07;3.00;;;17.30;99.90;;;;;;4757618;30;20172;-95
2021/07/19 07:29:51;;;;;;;10.25;3.00;;;17.40;99.90;;;;;;4758390;30;20233;-96
2021/07/19 07:35:40;;;;;;;8.20;3.10;;;17.50;99.90;;;;;;4782344;30;20184;-96
2021/07/19 07:38:08;;;;;;;11.57;3.20;;;17.40;99.90;;;;;;4757209;30;20236;-96
2021/07/19 07:40:39;;;;;;;7.07;3.28;;;17.40;99.90;;;;;;4758794;30;20238;-96
2021/07/19 07:43:05;;;;;;;8.55;2.83;;;17.40;99.90;;;;;;4757329;30;20681;-93
2021/07/19 07:45:37;;;;;;;10.43;3.65;;;17.50;99.90;;;;;;4756722;30;20177;-93
2021/07/19 07:48:04;;;;;;;8.63;3.33;;;17.50;99.90;;;;;;4756678;30;20204;-93
2021/07/19 07:50:32;;;;;;;8.18;3.40;;;17.50;99.90;;;;;;4756922;30;20180;-93
2021/07/19 07:52:57;;;;;;;8.82;3.40;;;17.50;99.90;;;;;;4756578;30;20212;-92
2021/07/19 07:55:23;;;;;;;8.07;2.90;;;17.50;99.90;;;;;;4756766;30;20204;-92
2021/07/19 07:57:49;;;;;;;9.48;3.33;;;17.50;99.90;;;;;;4756789;30;20273;-93
2021/07/19 08:00:17;;;;;;;9.48;3.67;;;17.50;99.90;;;;;;4757736;30;20180;-95
2021/07/19 08:02:43;;;;;;;7.72;2.90;;;17.60;99.90;;;;;;4756286;30;20239;-96
2021/07/19 08:05:10;;;;;;;10.30;3.97;;;17.60;99.90;;;;;;4756968;30;20233;-94
2021/07/19 08:07:36;;;;;;;8.57;3.13;;;17.70;99.90;;;;;;4757016;30;20184;-96
2021/07/19 08:10:05;;;;;;;6.65;3.08;;;17.80;99.90;;;;;;4756723;30;20290;-95
2021/07/19 08:12:31;;;;;;;7.38;3.30;;;17.90;99.90;;;;;;4757204;30;20550;-95
2021/07/19 08:14:58;;;;;;;10.23;3.13;;;18.00;99.90;;;;;;4758797;30;20672;-95
2021/07/19 08:17:25;;;;;;;8.32;3.40;;;18.10;99.90;;;;;;4758542;30;20187;-96
2021/07/19 08:19:52;;;;;;;6.22;2.85;;;18.10;99.90;;;;;;4762802;30;20208;-96
2021/07/19 08:22:21;;;;;;;8.32;3.17;;;18.20;99.90;;;;;;4764419;30;20211;-96
2021/07/19 08:24:47;;;;;;;11.10;3.20;;;18.20;99.90;;;;;;4758958;30;20231;-96
2021/07/19 08:27:42;;;;;;;10.40;3.50;;;18.10;99.90;;;;;;4760013;30;20203;-96
2021/07/19 08:30:11;;;;;;;10.57;3.28;;;18.20;99.90;;;;;;4781568;30;20216;-96
2021/07/19 08:32:37;;;;;;;5.85;2.85;;;18.10;99.90;;;;;;4769358;30;20252;-96
2021/07/19 08:35:15;;;;;;;11.27;3.28;;;18.20;99.90;;;;;;4762984;30;20200;-96
2021/07/19 08:37:44;;;;;;;7.82;2.75;;;18.30;99.90;;;;;;4766154;30;20665;-96
2021/07/19 08:40:15;;;;;;;6.88;2.80;;;18.30;99.90;;;;;;4768577;30;20176;-96
2021/07/19 08:48:51;;;;;;;7.57;3.35;;;18.30;99.90;;;;;;4793230;24;20330;-96
2021/07/19 08:51:18;;;;;;;8.65;3.17;;;18.30;99.90;;;;;;4772289;30;20176;-96
2021/07/19 08:54:05;;;;;;;7.38;3.15;;;18.20;99.90;;;;;;4763492;30;20187;-96
2021/07/19 08:56:31;;;;;;;9.07;2.70;;;18.30;99.90;;;;;;4763636;30;20216;-96
2021/07/19 08:58:58;;;;;;;6.30;3.55;;;18.30;99.90;;;;;;4758782;30;20277;-96
2021/07/19 09:01:26;;;;;;;8.82;3.38;;;18.30;99.90;;;;;;4770591;30;20215;-96
2021/07/19 09:03:52;;;;;;;9.23;3.58;;;18.30;99.90;;;;;;4755579;30;20188;-94
2021/07/19 09:06:18;;;;;;;10.02;3.25;;;18.20;99.90;;;;;;4756712;30;20271;-94
2021/07/19 09:08:50;;;;;;;6.65;3.33;;;18.20;99.90;;;;;;4755882;30;20215;-94
2021/07/19 09:11:26;;;;;;;7.00;3.20;;;18.20;99.90;;;;;;4756160;30;20184;-94
2021/07/19 09:14:13;;;;;;;8.45;3.40;;;18.20;99.90;;;;;;4756030;30;20570;-94
2021/07/19 09:17:04;;;;;;;9.00;3.65;;;18.20;99.90;;;;;;4753735;30;20191;-94
2021/07/19 09:19:43;;;;;;;8.27;3.25;;;18.10;99.90;;;;;;4741272;30;20649;-94
2021/07/19 09:22:09;;;;;;;9.73;3.80;;;18.20;99.90;;;;;;4755695;30;20697;-94
2021/07/19 09:24:44;;;;;;;10.52;3.22;;;18.20;99.90;;;;;;4755620;30;20180;-95
2021/07/19 09:27:19;;;;;;;8.02;3.50;;;18.20;99.90;;;;;;4755674;30;20176;-93
2021/07/19 09:29:45;;;;;;;6.65;3.40;;;18.30;99.90;;;;;;4755419;30;20207;-94
2021/07/19 09:32:16;;;;;;;6.80;3.42;;;18.40;99.90;;;;;;4771621;30;20176;-92
2021/07/19 09:34:42;;;;;;;6.88;3.65;;;18.50;99.90;;;;;;4754954;30;20249;-93
2021/07/19 09:37:11;;;;;;;6.80;3.72;;;18.60;99.90;;;;;;4755232;30;20665;-95
2021/07/19 09:39:50;;;;;;;8.98;3.75;;;18.70;99.90;;;;;;4755521;30;20212;-94
2021/07/19 09:42:18;;;;;;;8.85;3.60;;;18.70;99.90;;;;;;4755288;30;20211;-94
2021/07/19 09:44:51;;;;;;;8.23;3.60;;;18.60;99.90;;;;;;4755239;30;20187;-94
2021/07/19 09:47:17;;;;;;;8.48;3.60;;;18.60;99.90;;;;;;4755247;30;20176;-94
2021/07/19 09:49:45;;;;;;;7.78;3.78;;;18.60;99.90;;;;;;4754815;30;20234;-95
2021/07/19 09:52:37;;;;;;;9.43;4.03;;;18.70;99.90;;;;;;4755334;30;20187;-96
2021/07/19 09:55:54;;;;;;;10.35;3.85;;;18.80;99.90;;;;;;4755346;30;20626;-95
2021/07/19 09:58:23;;;;;;;8.88;4.15;;;18.90;99.90;;;;;;4755174;30;20670;-93
2021/07/19 10:00:49;;;;;;;8.80;3.80;;;18.90;99.90;;;;;;4755007;30;20188;-93
2021/07/19 10:03:18;;;;;;;8.35;3.42;;;18.80;99.90;;;;;;4754986;30;20231;-92
2021/07/19 10:05:45;;;;;;;9.10;3.80;;;18.80;99.90;;;;;;4755005;30;20236;-93
2021/07/19 10:08:21;;;;;;;7.65;3.08;;;18.70;99.90;;;;;;4755094;30;20200;-92
2021/07/19 10:10:50;;;;;;;7.68;3.40;;;18.60;99.90;;;;;;4755105;30;20176;-94
2021/07/19 10:13:18;;;;;;;8.00;3.78;;;18.50;99.90;;;;;;4755343;30;20252;-95
2021/07/19 10:15:48;;;;;;;6.38;3.70;;;18.50;99.90;;;;;;4740633;30;20340;-94
2021/07/19 10:18:17;;;;;;;11.48;4.10;;;18.40;99.90;;;;;;4755089;30;20216;-93
2021/07/19 10:20:47;;;;;;;7.00;3.50;;;18.40;99.90;;;;;;4754665;30;20191;-94
2021/07/19 10:23:19;;;;;;;8.73;4.05;;;18.40;99.90;;;;;;4754967;30;20203;-95
2021/07/19 10:25:56;;;;;;;10.68;4.03;;;18.40;99.90;;;;;;4754939;30;20184;-94
2021/07/19 10:28:24;;;;;;;10.82;4.28;;;18.40;99.90;;;;;;4754776;30;20664;-94
2021/07/19 10:30:53;;;;;;;9.85;4.03;;;18.50;99.90;;;;;;4754663;30;20626;-95
2021/07/19 10:33:19;;;;;;;7.75;3.72;;;18.50;99.90;;;;;;4754743;30;20199;-93
2021/07/19 10:35:46;;;;;;;9.02;4.10;;;18.70;99.90;;;;;;4754857;30;20187;-93
2021/07/19 10:38:19;;;;;;;9.30;4.45;;;18.80;99.90;;;;;;4754627;30;20216;-94
2021/07/19 10:40:58;;;;;;;6.75;3.65;;;19.00;99.90;;;;;;4755108;30;20184;-94
2021/07/19 10:43:29;;;;;;;5.05;3.40;;;19.10;99.90;;;;;;4754939;30;20242;-95
2021/07/19 10:46:28;;;;;;;5.95;3.33;;;19.10;99.90;;;;;;4755413;30;20633;-96
2021/07/19 10:49:29;;;;;;;7.25;3.55;;;19.10;99.90;;;;;;4751672;30;20236;-96
2021/07/19 10:56:01;;;;;;;9.43;4.00;;;18.70;99.90;;;;;;4771153;30;20171;-96
2021/07/19 10:58:48;;;;;;;15.00;4.18;;;18.80;99.90;;;;;;4754744;30;20231;-95
2021/07/19 11:01:28;;;;;;;7.82;4.50;;;18.90;99.90;;;;;;4755617;30;20640;-94
2021/07/19 11:04:32;;;;;;;8.15;4.00;;;19.20;99.90;;;;;;4758478;30;20606;-95
2021/07/19 11:08:05;;;;;;;8.02;4.32;;;19.40;99.90;;;;;;4763140;30;20657;-95
2021/07/19 11:10:47;;;;;;;5.80;3.90;;;19.60;99.90;;;;;;4757986;30;20192;-95
2021/07/19 11:13:34;;;;;;;6.93;3.83;;;19.70;99.90;;;;;;4758055;30;20187;-94
2021/07/19 11:16:16;;;;;;;6.53;4.20;;;19.70;99.60;;;;;;4757951;30;20268;-94
2021/07/19 11:22:13;;;;;;;6.82;3.78;;;19.80;99.90;;;;;;4774836;30;20337;-94
2021/07/19 11:25:35;;;;;;;9.20;3.95;;;19.80;99.90;;;;;;4774572;30;20247;-95
2021/07/19 11:28:57;;;;;;;6.78;3.42;;;19.90;98.60;;;;;;4704705;30;20214;-94
2021/07/19 11:35:36;;;;;;;8.07;3.95;;;19.70;99.90;;;;;;4717865;30;20337;-96
2021/07/19 11:41:43;;;;;;;7.82;4.07;;;19.50;99.90;;;;;;4725277;30;20170;-95
2021/07/19 11:45:20;;;;;;;7.13;4.20;;;19.30;99.90;;;;;;4719487;30;20622;-94
2021/07/19 12:00:13;;;;;;;5.57;3.88;;;19.30;99.90;;;;;;4843520;24;20251;-96
2021/07/19 12:03:06;;;;;;;9.52;4.07;;;19.30;99.90;;;;;;4787495;30;20211;-96
2021/07/19 12:06:14;;;;;;;9.50;4.50;;;19.40;99.90;;;;;;4832192;24;20513;-96
2021/07/19 12:11:57;;;;;;;7.07;4.03;;;19.70;99.90;;;;;;4843616;24;20628;-96
2021/07/19 12:14:25;;;;;;;8.73;4.50;;;19.80;99.90;;;;;;4827045;24;21047;-96
2021/07/19 12:19:53;;;;;;;6.82;4.55;;;20.00;99.90;;;;;;4772857;24;20631;-96
2021/07/19 12:22:37;;;;;;;9.13;3.80;;;20.00;99.80;;;;;;4766648;30;20292;-96
2021/07/19 12:25:09;;;;;;;7.47;4.55;;;20.10;99.50;;;;;;4746649;30;20192;-96
2021/07/19 12:30:01;;;;;;;9.32;4.35;;;20.00;99.30;;;;;;4927861;24;20261;-95
2021/07/19 12:32:29;;;;;;;8.25;4.22;;;20.10;99.90;;;;;;4781007;30;20195;-96
2021/07/19 12:35:31;;;;;;;7.95;4.18;;;20.20;99.00;;;;;;4789443;29;20190;-96
2021/07/19 12:38:02;;;;;;;7.28;4.30;;;20.20;99.90;;;;;;4799375;29;20269;-96
2021/07/19 12:40:28;;;;;;;6.10;4.28;;;20.20;99.90;;;;;;4785573;29;20189;-96
2021/07/19 12:43:03;;;;;;;6.60;4.05;;;20.20;99.90;;;;;;4789847;29;20214;-96
2021/07/19 12:45:40;;;;;;;10.60;4.90;;;20.20;99.40;;;;;;4790166;29;20209;-96
2021/07/19 12:48:20;;;;;;;12.82;4.95;;;20.10;99.00;;;;;;4790197;29;20183;-96
2021/07/19 12:51:04;;;;;;;7.57;4.63;;;20.00;99.00;;;;;;4786928;29;20517;-96
2021/07/19 12:53:50;;;;;;;;;;;;;;;;;;;;;
2021/07/19 12:56:18;;;;;;;7.45;4.38;;;19.70;99.60;;;;;;4788906;30;20240;-96
2021/07/19 13:01:56;;;;;;;6.95;4.60;;;19.60;99.90;;;;;;4881539;24;20257;-96
2021/07/19 13:07:38;;;;;;;8.23;4.28;;;19.70;99.90;;;;;;4796317;30;20187;-96
2021/07/19 13:13:04;;;;;;;6.32;4.45;;;19.90;99.90;;;;;;4773702;30;20267;-96
2021/07/19 13:15:39;;;;;;;7.65;4.03;;;19.80;99.30;;;;;;4745479;30;20211;-95
2021/07/19 13:18:48;;;;;;;;;;;;;;;;;;;;;
2021/07/19 13:21:25;;;;;;;7.80;4.70;;;19.70;99.90;;;;;;4767790;30;20198;-95
2021/07/19 13:23:55;;;;;;;11.23;4.78;;;19.60;99.90;;;;;;4749166;30;20231;-96
2021/07/19 13:26:39;;;;;;;6.72;4.70;;;19.60;99.90;;;;;;4747343;30;20291;-94
2021/07/19 13:29:12;;;;;;;9.18;4.85;;;19.50;99.20;;;;;;4747963;30;20601;-96
2021/07/19 13:31:48;;;;;;;8.65;4.63;;;19.50;99.80;;;;;;4755220;30;20180;-96
2021/07/19 13:34:17;;;;;;;6.78;4.40;;;19.40;99.90;;;;;;4762653;30;20229;-96
2021/07/19 13:36:53;;;;;;;7.53;4.38;;;19.40;99.90;;;;;;4825268;24;20256;-96
2021/07/19 13:39:30;;;;;;;11.02;4.35;;;19.30;99.90;;;;;;4741636;30;20288;-96
2021/07/19 13:42:07;;;;;;;7.30;4.78;;;19.30;99.90;;;;;;4739524;30;20244;-95
2021/07/19 13:44:33;;;;;;;8.45;4.55;;;19.30;99.90;;;;;;4738776;30;20307;-96
2021/07/19 13:47:00;;;;;;;8.60;4.35;;;19.30;99.90;;;;;;4738563;30;20667;-96
2021/07/19 13:49:27;;;;;;;8.45;5.03;;;19.30;99.90;;;;;;4738763;30;20611;-95
2021/07/19 13:51:53;;;;;;;10.98;4.68;;;19.30;99.90;;;;;;4739446;30;20185;-96
2021/07/19 13:54:19;;;;;;;11.70;4.65;;;19.20;99.80;;;;;;4738866;30;20292;-95
2021/07/19 14:09:14;;;;;;;10.95;5.10;;;19.00;99.90;;;;;;4933180;24;20234;-96
2021/07/19 14:11:59;;;;;;;7.25;4.53;;;18.90;99.90;;;;;;4952453;24;20247;-96
2021/07/19 14:14:36;;;;;;;7.30;4.57;;;18.90;99.90;;;;;;4780638;30;20206;-96
2021/07/19 14:44:52;;;;;;;8.43;4.68;;;19.10;99.90;;;;;;5840597;24;20198;31
2021/07/19 14:47:18;;;;;;;11.52;4.65;;;19.20;99.90;;;;;;4749078;30;20244;-93
2021/07/19 14:50:35;;;;;;;7.90;4.88;;;19.10;99.90;;;;;;4800490;24;20244;-94
2021/07/19 14:53:17;;;;;;;11.43;5.60;;;19.10;99.90;;;;;;4761113;30;20657;-94